Time;durP1;ratioP1;P1;durP2;ratioP2;P2;SDS_P1;SDS_P2;PMS_P1;PMS_P2;Temp;Humidity;BMP_temperature;BMP_pressure;BME280_temperature;BME280_humidity;BME280_pressure;Samples;Min_cycle;Max_cycle;Signal;HPM_P1;HPM_P2
2022/07/26 00:01:24;;;;;;;3.30;2.30;;;21.20;99.90;;;;;;4951178;28;20260;-76
2022/07/26 00:03:50;;;;;;;3.80;2.50;;;21.20;99.90;;;;;;4951878;28;20177;-76
2022/07/26 00:06:16;;;;;;;3.80;2.47;;;21.20;99.90;;;;;;4951612;29;20742;-76
2022/07/26 00:08:42;;;;;;;2.37;1.90;;;21.20;99.90;;;;;;4951610;29;20607;-75
2022/07/26 00:11:07;;;;;;;2.40;2.20;;;21.10;99.90;;;;;;4951059;28;20260;-76
2022/07/26 00:13:34;;;;;;;7.10;2.27;;;21.10;99.90;;;;;;4951780;29;20212;-76
2022/07/26 00:15:59;;;;;;;6.20;2.07;;;21.10;99.90;;;;;;4952072;29;20528;-76
2022/07/26 00:18:25;;;;;;;3.10;2.40;;;21.20;99.90;;;;;;4951228;29;20495;-76
2022/07/26 00:20:51;;;;;;;6.10;1.93;;;21.20;99.90;;;;;;4951038;28;20666;-76
2022/07/26 00:23:18;;;;;;;4.10;1.70;;;21.20;99.90;;;;;;4951417;28;20303;-74
2022/07/26 00:25:44;;;;;;;5.23;1.80;;;21.20;99.90;;;;;;4952482;28;20409;-75
2022/07/26 00:28:09;;;;;;;4.37;2.00;;;21.20;99.90;;;;;;4955202;29;20422;-74
2022/07/26 00:30:35;;;;;;;3.60;1.73;;;21.20;99.90;;;;;;4954408;29;20192;-75
2022/07/26 00:33:01;;;;;;;3.70;1.50;;;21.20;99.90;;;;;;4954564;28;20212;-75
2022/07/26 00:35:26;;;;;;;5.30;2.50;;;21.30;99.90;;;;;;4954815;29;20549;-74
2022/07/26 00:37:52;;;;;;;2.77;2.27;;;21.30;99.90;;;;;;4954950;28;20204;-76
2022/07/26 00:40:17;;;;;;;2.30;2.20;;;21.30;99.90;;;;;;4936630;29;20200;-74
2022/07/26 00:42:43;;;;;;;3.17;1.77;;;21.40;99.90;;;;;;4954062;28;20192;-75
2022/07/26 00:45:10;;;;;;;5.73;2.17;;;21.40;99.90;;;;;;4954879;29;20191;-76
2022/07/26 00:47:36;;;;;;;1.80;1.60;;;21.40;99.90;;;;;;4954741;29;20412;-74
2022/07/26 00:50:07;;;;;;;2.30;1.43;;;21.40;99.90;;;;;;4954841;28;20419;-75
2022/07/26 00:52:32;;;;;;;4.20;1.77;;;21.40;99.90;;;;;;4953937;28;20199;-76
2022/07/26 00:54:58;;;;;;;2.10;1.37;;;21.40;99.90;;;;;;4954102;29;20416;-74
2022/07/26 00:57:24;;;;;;;3.90;1.33;;;21.40;99.90;;;;;;4954618;29;20723;-76
2022/07/26 00:59:50;;;;;;;2.27;2.07;;;21.50;99.90;;;;;;4954405;29;20201;-76
2022/07/26 02:32:52;;;;;;;2.60;1.90;;;19.60;99.90;;;;;;5045083;23;20541;-74
2022/07/26 02:35:18;;;;;;;2.37;1.60;;;19.60;99.90;;;;;;4967711;28;20437;-75
2022/07/26 02:37:44;;;;;;;5.33;1.80;;;19.60;99.90;;;;;;4971662;28;20215;-76
2022/07/26 02:40:10;;;;;;;2.33;2.13;;;19.60;99.90;;;;;;4970003;28;20652;-75
2022/07/26 02:42:36;;;;;;;1.90;1.70;;;19.70;99.90;;;;;;4969897;28;20585;-76
2022/07/26 02:45:01;;;;;;;2.10;1.70;;;19.70;99.90;;;;;;4972157;28;20412;-75
2022/07/26 02:47:27;;;;;;;2.77;1.83;;;19.70;99.90;;;;;;4967438;28;20279;-74
2022/07/26 02:49:52;;;;;;;2.27;1.63;;;19.70;99.90;;;;;;4971458;28;20215;-75
2022/07/26 02:52:19;;;;;;;4.40;1.60;;;19.70;99.90;;;;;;4969038;28;20262;-74
2022/07/26 02:54:45;;;;;;;2.03;1.20;;;19.70;99.90;;;;;;4971877;28;20449;-76
2022/07/26 02:57:12;;;;;;;1.83;1.73;;;19.60;99.90;;;;;;4966826;28;20435;-76
2022/07/26 02:59:38;;;;;;;2.23;1.70;;;19.70;99.90;;;;;;4971480;28;20204;-75
2022/07/26 03:02:03;;;;;;;1.53;1.43;;;19.60;99.90;;;;;;4968961;28;20446;-76
2022/07/26 03:04:29;;;;;;;1.83;1.73;;;19.60;99.90;;;;;;4971048;28;20268;-77
2022/07/26 03:06:54;;;;;;;3.73;1.70;;;19.60;99.90;;;;;;4971118;28;20242;-75
2022/07/26 03:09:20;;;;;;;1.90;1.70;;;19.60;99.90;;;;;;4967606;28;20234;-75
2022/07/26 03:11:45;;;;;;;4.40;1.60;;;19.70;99.90;;;;;;4964271;28;20207;-75
2022/07/26 03:14:11;;;;;;;2.23;1.37;;;19.60;99.90;;;;;;4969607;28;20602;-76
2022/07/26 03:16:37;;;;;;;1.17;1.17;;;19.60;99.90;;;;;;4970814;28;20702;-73
2022/07/26 03:19:02;;;;;;;2.43;0.93;;;19.60;99.90;;;;;;4969313;28;20227;-75
2022/07/26 03:21:28;;;;;;;2.77;1.47;;;19.60;99.90;;;;;;4968970;28;20298;-77
2022/07/26 03:23:53;;;;;;;2.30;1.40;;;19.60;99.90;;;;;;4970223;28;20184;-75
2022/07/26 03:26:19;;;;;;;4.30;1.60;;;19.60;99.90;;;;;;4965232;28;20184;-75
2022/07/26 03:28:45;;;;;;;1.30;1.17;;;19.50;99.90;;;;;;4971240;28;20180;-75
2022/07/26 03:31:11;;;;;;;1.87;1.77;;;19.50;99.90;;;;;;4964990;28;20286;-75
2022/07/26 03:33:37;;;;;;;1.40;1.27;;;19.40;99.90;;;;;;4962563;28;20195;-72
2022/07/26 03:36:03;;;;;;;1.20;1.10;;;19.40;99.90;;;;;;4964688;28;20514;-75
2022/07/26 03:38:29;;;;;;;1.10;1.10;;;19.40;99.90;;;;;;4959420;28;20467;-75
2022/07/26 03:40:55;;;;;;;7.33;1.77;;;19.30;99.90;;;;;;4950752;28;20796;-75
2022/07/26 03:43:20;;;;;;;3.63;1.60;;;19.20;99.90;;;;;;4952043;29;20169;-75
2022/07/26 03:45:46;;;;;;;1.53;1.40;;;19.20;99.90;;;;;;4952807;28;20184;-76
2022/07/26 03:48:11;;;;;;;1.83;1.60;;;19.20;99.90;;;;;;4967606;28;20180;-76
2022/07/26 03:50:37;;;;;;;1.80;1.70;;;19.20;99.90;;;;;;4969427;28;20664;-72
2022/07/26 03:53:02;;;;;;;4.33;1.20;;;19.20;99.90;;;;;;4967232;28;20196;-75
2022/07/26 03:58:12;;;;;;;1.63;1.33;;;19.10;99.90;;;;;;4961844;28;20255;-75
2022/07/26 04:00:38;;;;;;;1.60;1.50;;;19.10;99.90;;;;;;4970965;28;20427;-75
2022/07/26 04:03:03;;;;;;;1.90;1.70;;;19.10;99.90;;;;;;4972464;28;20231;-75
2022/07/26 04:05:29;;;;;;;1.60;1.50;;;19.00;99.90;;;;;;4972874;28;20267;-75
2022/07/26 04:07:54;;;;;;;2.77;1.70;;;19.00;99.90;;;;;;4972394;28;20180;-74
2022/07/26 04:10:21;;;;;;;2.03;1.77;;;19.00;99.90;;;;;;4955489;28;20235;-74
2022/07/26 04:12:47;;;;;;;1.70;1.60;;;19.10;99.90;;;;;;4970898;28;20291;-75
2022/07/26 04:15:14;;;;;;;1.47;1.37;;;19.10;99.90;;;;;;4971433;28;20451;-75
2022/07/26 04:17:42;;;;;;;1.73;1.37;;;19.10;99.90;;;;;;4956257;28;20267;-75
2022/07/26 04:20:10;;;;;;;1.80;1.70;;;19.10;99.90;;;;;;4972501;28;20443;-74
2022/07/26 04:22:36;;;;;;;1.60;1.50;;;19.20;99.90;;;;;;4973510;28;20439;-75
2022/07/26 04:25:03;;;;;;;1.97;1.87;;;19.20;99.90;;;;;;4970856;28;20442;-75
2022/07/26 04:27:30;;;;;;;1.73;1.47;;;19.20;99.90;;;;;;4952065;28;20423;-75
2022/07/26 04:29:56;;;;;;;3.07;1.63;;;19.20;99.90;;;;;;4972170;28;21462;-75
2022/07/26 04:32:21;;;;;;;1.60;1.50;;;19.20;99.90;;;;;;4971336;28;20466;-75
2022/07/26 04:34:47;;;;;;;2.73;1.50;;;19.30;99.90;;;;;;4970231;28;20681;-75
2022/07/26 04:37:13;;;;;;;1.90;1.20;;;19.30;99.90;;;;;;4972278;28;20184;-75
2022/07/26 04:39:38;;;;;;;1.50;1.40;;;19.40;99.90;;;;;;4973419;28;20350;-74
2022/07/26 04:42:04;;;;;;;7.10;1.53;;;19.40;99.90;;;;;;4971452;28;20230;-75
2022/07/26 04:44:29;;;;;;;2.10;1.90;;;19.40;99.90;;;;;;4974299;28;20207;-75
2022/07/26 04:46:55;;;;;;;4.00;2.27;;;19.30;99.90;;;;;;4972647;28;20631;-75
2022/07/26 04:49:20;;;;;;;4.63;2.07;;;19.30;99.90;;;;;;4973574;28;20188;-75
2022/07/26 04:51:46;;;;;;;1.53;1.43;;;19.30;99.90;;;;;;4972401;28;20232;-75
2022/07/26 04:54:11;;;;;;;1.77;1.67;;;19.30;99.90;;;;;;4974266;28;20595;-74
2022/07/26 04:56:37;;;;;;;3.37;1.80;;;19.30;99.90;;;;;;4970876;28;20652;-72
2022/07/26 04:59:02;;;;;;;4.23;1.50;;;19.40;99.90;;;;;;4972706;28;20274;-75
2022/07/26 05:01:28;;;;;;;1.53;1.43;;;19.40;99.90;;;;;;4973886;28;20227;-75
2022/07/26 05:03:53;;;;;;;4.90;2.30;;;19.50;99.90;;;;;;4972176;28;20203;-75
2022/07/26 05:06:19;;;;;;;4.23;1.60;;;19.50;99.90;;;;;;4973811;28;20179;-75
2022/07/26 05:08:44;;;;;;;2.57;2.37;;;19.60;99.90;;;;;;4971792;28;20180;-75
2022/07/26 05:11:10;;;;;;;3.00;1.90;;;19.70;99.90;;;;;;4966045;28;20681;-75
2022/07/26 05:13:35;;;;;;;2.20;1.80;;;19.80;99.90;;;;;;4968458;28;20854;-74
2022/07/26 05:16:01;;;;;;;2.10;2.00;;;19.80;99.90;;;;;;4970162;28;20199;-75
2022/07/26 05:18:28;;;;;;;2.80;2.60;;;19.90;99.90;;;;;;4972717;28;20239;-75
2022/07/26 05:20:54;;;;;;;1.73;1.63;;;20.10;99.90;;;;;;4963693;28;20185;-74
2022/07/26 05:23:20;;;;;;;3.40;2.30;;;20.20;99.90;;;;;;4953012;29;20494;-74
2022/07/26 05:25:45;;;;;;;2.30;2.20;;;20.30;99.90;;;;;;4957844;28;20196;-74
2022/07/26 05:28:11;;;;;;;2.70;2.20;;;20.50;99.90;;;;;;4970016;28;20493;-75
2022/07/26 05:30:37;;;;;;;2.60;2.40;;;21.00;99.90;;;;;;4970345;28;20195;-72
2022/07/26 05:33:02;;;;;;;2.30;2.20;;;21.10;99.90;;;;;;4964701;28;20200;-75
2022/07/26 05:35:28;;;;;;;4.40;1.80;;;21.00;99.90;;;;;;4968284;28;20690;-75
2022/07/26 05:37:53;;;;;;;3.33;2.80;;;20.90;99.90;;;;;;4971539;28;20544;-75
2022/07/26 05:40:19;;;;;;;4.50;2.33;;;20.60;99.90;;;;;;4972717;28;20212;-74
2022/07/26 05:42:44;;;;;;;2.70;2.50;;;20.50;99.90;;;;;;4960741;28;20205;-75
2022/07/26 05:45:10;;;;;;;4.43;2.80;;;20.30;99.90;;;;;;4954018;29;20260;-73
2022/07/26 05:47:36;;;;;;;4.53;1.97;;;20.30;99.90;;;;;;4964113;28;20645;-74
2022/07/26 05:50:01;;;;;;;5.70;2.87;;;20.50;99.90;;;;;;4972583;28;20271;-75
2022/07/26 05:52:27;;;;;;;2.70;2.50;;;20.90;99.90;;;;;;4969915;28;20200;-74
2022/07/26 05:54:53;;;;;;;3.17;2.17;;;21.50;99.90;;;;;;4970762;28;20184;-75
2022/07/26 05:57:18;;;;;;;4.00;2.23;;;22.20;99.90;;;;;;4968582;28;20202;-73
2022/07/26 05:59:44;;;;;;;2.40;2.20;;;22.80;99.90;;;;;;4972024;28;20211;-73
2022/07/26 06:02:09;;;;;;;2.43;2.20;;;23.20;99.90;;;;;;4972228;28;20605;-75
2022/07/26 06:04:35;;;;;;;4.30;3.60;;;23.50;99.90;;;;;;4969128;28;20561;-75
2022/07/26 06:07:00;;;;;;;4.20;2.47;;;23.70;99.90;;;;;;4972560;28;20184;-74
2022/07/26 06:09:26;;;;;;;2.00;1.43;;;24.00;99.90;;;;;;4970502;28;20250;-75
2022/07/26 06:11:52;;;;;;;2.87;2.27;;;24.30;99.90;;;;;;4971005;28;20212;-75
2022/07/26 06:14:18;;;;;;;3.60;1.60;;;24.50;99.90;;;;;;4972040;28;20258;-72
2022/07/26 06:16:44;;;;;;;4.37;1.33;;;24.70;99.90;;;;;;4970227;28;20192;-75
2022/07/26 06:19:09;;;;;;;3.43;2.20;;;24.90;99.90;;;;;;4970187;28;20459;-75
2022/07/26 06:21:35;;;;;;;3.83;1.57;;;24.90;99.90;;;;;;4971398;28;20965;-75
2022/07/26 06:24:00;;;;;;;3.43;1.80;;;25.00;99.90;;;;;;4971946;28;20179;-74
2022/07/26 06:26:26;;;;;;;3.83;1.40;;;25.10;99.90;;;;;;4966184;28;20192;-74
2022/07/26 06:28:51;;;;;;;2.70;1.60;;;25.30;99.90;;;;;;4972245;28;20536;-75
2022/07/26 06:31:17;;;;;;;5.30;2.37;;;25.50;99.90;;;;;;4970812;28;20222;-74
2022/07/26 06:33:43;;;;;;;6.40;1.27;;;25.70;99.90;;;;;;4966381;28;20192;-74
2022/07/26 06:36:09;;;;;;;6.60;1.23;;;26.00;99.90;;;;;;4969096;28;20439;-74
2022/07/26 06:38:34;;;;;;;5.17;1.17;;;25.90;99.90;;;;;;4971978;28;20214;-74
2022/07/26 06:41:00;;;;;;;3.03;1.20;;;26.00;99.90;;;;;;4969087;28;20208;-74
2022/07/26 06:43:25;;;;;;;2.10;1.70;;;26.10;99.90;;;;;;4971790;28;20176;-74
2022/07/26 06:45:51;;;;;;;4.87;1.03;;;26.30;99.90;;;;;;4971475;28;20514;-75
2022/07/26 06:48:17;;;;;;;3.10;1.53;;;26.20;99.90;;;;;;4968367;28;20183;-73
2022/07/26 06:50:42;;;;;;;2.00;1.10;;;26.30;99.90;;;;;;4971084;28;20287;-74
2022/07/26 06:53:08;;;;;;;2.43;1.17;;;26.40;99.90;;;;;;4969949;28;20761;-75
2022/07/26 06:55:33;;;;;;;2.40;1.00;;;26.60;99.90;;;;;;4971816;28;20191;-74
2022/07/26 06:57:59;;;;;;;2.60;0.80;;;26.80;99.90;;;;;;4966566;28;20203;-74
2022/07/26 07:00:24;;;;;;;2.03;1.20;;;27.10;99.90;;;;;;4971636;28;20263;-73
2022/07/26 07:02:50;;;;;;;1.40;1.20;;;27.20;99.90;;;;;;4969039;28;20219;-74
2022/07/26 07:05:15;;;;;;;2.27;0.97;;;27.30;99.90;;;;;;4972101;28;20180;-73
2022/07/26 07:07:41;;;;;;;5.57;1.47;;;27.40;99.90;;;;;;4970963;28;20235;-74
2022/07/26 07:10:07;;;;;;;1.43;0.90;;;27.80;99.90;;;;;;4971365;28;20242;-75
2022/07/26 07:12:33;;;;;;;2.00;0.90;;;27.50;99.90;;;;;;4970860;28;20215;-73
2022/07/26 07:14:59;;;;;;;1.70;1.10;;;27.50;99.90;;;;;;4953734;28;20439;-73
2022/07/26 07:17:24;;;;;;;3.90;0.70;;;27.70;99.90;;;;;;4971616;28;20439;-76
2022/07/26 07:19:50;;;;;;;4.07;1.00;;;27.70;99.90;;;;;;4968895;28;20246;-74
2022/07/26 07:22:15;;;;;;;2.10;1.00;;;27.90;99.90;;;;;;4968375;28;20200;-75
2022/07/26 07:24:41;;;;;;;3.47;0.97;;;27.90;99.90;;;;;;4969713;28;20200;-75
2022/07/26 07:27:07;;;;;;;2.70;1.00;;;28.10;99.90;;;;;;4966873;28;20219;-74
2022/07/26 07:29:33;;;;;;;5.63;0.80;;;28.30;99.90;;;;;;4970626;28;20259;-75
2022/07/26 07:31:59;;;;;;;2.10;0.80;;;28.60;99.90;;;;;;4956163;28;20925;-74
2022/07/26 07:34:25;;;;;;;5.20;1.00;;;28.70;99.90;;;;;;4966792;28;20207;-74
2022/07/26 07:36:51;;;;;;;1.57;0.70;;;28.70;99.90;;;;;;4972664;28;20279;-75
2022/07/26 07:39:17;;;;;;;1.40;0.87;;;28.70;99.90;;;;;;4975328;28;20211;-72
2022/07/26 07:41:43;;;;;;;2.70;1.10;;;28.60;99.90;;;;;;4972069;28;20467;-74
2022/07/26 07:44:09;;;;;;;1.10;0.70;;;28.50;99.90;;;;;;4973793;28;20643;-74
2022/07/26 07:46:35;;;;;;;1.10;0.67;;;28.60;99.90;;;;;;4972994;28;20531;-74
2022/07/26 07:49:00;;;;;;;0.80;0.60;;;28.70;99.90;;;;;;4974102;28;20172;-73
2022/07/26 07:51:26;;;;;;;2.10;0.70;;;28.70;99.90;;;;;;4974551;28;20715;-74
2022/07/26 07:53:52;;;;;;;3.33;1.00;;;29.00;99.90;;;;;;4971909;28;20188;-74
2022/07/26 07:56:18;;;;;;;2.73;0.80;;;29.00;99.90;;;;;;4972467;28;20478;-73
2022/07/26 07:58:43;;;;;;;1.90;0.60;;;29.40;99.90;;;;;;4972239;28;20208;-74
2022/07/26 08:01:09;;;;;;;5.93;1.00;;;29.40;99.90;;;;;;4974378;28;20653;-74
2022/07/26 08:03:35;;;;;;;3.80;0.90;;;29.60;99.90;;;;;;4972863;28;20605;-72
2022/07/26 08:06:01;;;;;;;4.40;0.90;;;29.40;99.90;;;;;;4971043;28;20239;-74
2022/07/26 08:08:27;;;;;;;0.90;0.60;;;29.20;99.90;;;;;;4973176;28;20192;-75
2022/07/26 08:10:53;;;;;;;3.23;0.90;;;28.70;99.90;;;;;;4971809;28;20454;-74
2022/07/26 08:13:21;;;;;;;2.73;0.90;;;28.50;99.90;;;;;;4973871;28;20188;-73
2022/07/26 08:15:46;;;;;;;2.20;0.70;;;28.70;99.90;;;;;;4971741;28;20224;-75
2022/07/26 08:18:12;;;;;;;5.43;0.97;;;29.10;99.90;;;;;;4957132;28;20490;-74
2022/07/26 08:20:37;;;;;;;1.27;0.60;;;29.50;99.90;;;;;;4971541;28;20204;-74
2022/07/26 08:23:03;;;;;;;0.77;0.70;;;29.90;99.90;;;;;;4974741;28;20266;-74
2022/07/26 08:25:28;;;;;;;2.40;0.80;;;30.40;99.90;;;;;;4971621;28;20184;-74
2022/07/26 08:27:54;;;;;;;1.47;0.70;;;30.70;99.90;;;;;;4969573;28;20191;-75
2022/07/26 08:30:19;;;;;;;1.93;0.80;;;30.70;99.90;;;;;;4971787;28;20259;-74
2022/07/26 08:32:45;;;;;;;2.23;0.90;;;30.60;99.50;;;;;;4971308;28;20295;-74
2022/07/26 08:35:11;;;;;;;3.43;0.80;;;30.60;99.40;;;;;;4970579;28;20188;-74
2022/07/26 08:37:36;;;;;;;2.77;0.93;;;30.90;99.00;;;;;;4974098;28;20671;-72
2022/07/26 08:40:04;;;;;;;1.57;0.93;;;30.90;98.80;;;;;;4973432;28;20454;-74
2022/07/26 08:42:29;;;;;;;2.00;0.70;;;30.70;99.70;;;;;;4970713;28;20204;-74
2022/07/26 08:44:55;;;;;;;2.70;0.80;;;31.00;98.50;;;;;;4974231;28;20922;-74
2022/07/26 08:47:21;;;;;;;3.23;0.80;;;30.60;98.00;;;;;;4970854;28;20664;-76
2022/07/26 08:49:47;;;;;;;2.40;0.73;;;30.10;98.20;;;;;;4973193;28;20258;-74
2022/07/26 08:52:14;;;;;;;8.83;0.80;;;30.60;98.20;;;;;;4971417;28;20533;-74
2022/07/26 08:54:48;;;;;;;1.00;0.80;;;30.80;97.90;;;;;;4972925;28;20255;-74
2022/07/26 08:57:14;;;;;;;2.93;0.80;;;31.40;97.20;;;;;;4970032;28;20848;-73
2022/07/26 08:59:40;;;;;;;4.53;0.90;;;31.70;95.90;;;;;;4973429;28;20470;-75
2022/07/26 09:02:08;;;;;;;1.03;0.80;;;31.70;95.70;;;;;;4972551;28;20447;-75
2022/07/26 09:04:39;;;;;;;1.30;0.70;;;31.60;95.50;;;;;;4971856;28;20184;-74
2022/07/26 09:07:08;;;;;;;3.13;1.00;;;32.10;95.10;;;;;;4973985;28;20522;-72
2022/07/26 09:09:36;;;;;;;1.80;0.73;;;32.40;94.40;;;;;;4969683;28;20462;-72
2022/07/26 09:12:17;;;;;;;2.70;0.80;;;32.30;93.90;;;;;;4970484;28;20463;-72
2022/07/26 09:14:45;;;;;;;4.10;0.80;;;32.00;93.70;;;;;;4971263;28;20450;-71
2022/07/26 09:17:12;;;;;;;5.97;0.70;;;31.90;92.80;;;;;;4973787;28;20506;-72
2022/07/26 09:19:38;;;;;;;1.20;0.80;;;31.70;93.40;;;;;;4970978;28;20466;-71
2022/07/26 09:22:09;;;;;;;1.40;0.70;;;31.70;94.10;;;;;;4969710;28;20486;-72
2022/07/26 09:24:46;;;;;;;2.20;0.70;;;31.90;93.30;;;;;;4971587;28;20970;-72
2022/07/26 09:27:16;;;;;;;4.27;0.70;;;31.30;93.60;;;;;;4971673;28;20446;-72
2022/07/26 09:29:53;;;;;;;1.13;0.73;;;30.70;93.60;;;;;;4971391;28;20876;-72
2022/07/26 09:32:21;;;;;;;3.40;0.90;;;29.50;94.80;;;;;;4970158;28;20470;-73
2022/07/26 09:34:55;;;;;;;5.00;0.70;;;29.30;95.10;;;;;;4962245;28;20534;-74
2022/07/26 09:37:38;;;;;;;1.97;0.70;;;29.70;95.90;;;;;;4971433;28;20431;-73
2022/07/26 09:40:07;;;;;;;5.20;0.80;;;29.70;94.00;;;;;;4973133;28;20493;-74
2022/07/26 09:42:33;;;;;;;2.30;0.90;;;28.90;94.20;;;;;;4965541;28;20553;-73
2022/07/26 09:44:59;;;;;;;1.60;0.63;;;29.00;95.10;;;;;;4972685;28;20920;-73
2022/07/26 09:47:38;;;;;;;2.03;0.70;;;29.70;94.90;;;;;;4971348;28;20474;-74
2022/07/26 09:50:18;;;;;;;2.10;0.70;;;29.70;94.30;;;;;;4973123;28;20286;-74
2022/07/26 09:53:02;;;;;;;1.57;0.60;;;28.80;95.00;;;;;;4967962;28;20455;-73
2022/07/26 09:55:30;;;;;;;12.77;1.37;;;29.20;96.20;;;;;;4973258;28;20418;-74
2022/07/26 09:57:58;;;;;;;2.17;0.63;;;29.70;95.90;;;;;;4967692;28;20489;-74
2022/07/26 10:00:24;;;;;;;0.60;0.60;;;30.20;94.60;;;;;;4972419;28;20424;-71
2022/07/26 10:02:51;;;;;;;1.73;1.03;;;30.70;94.10;;;;;;4969681;28;20904;-74
2022/07/26 10:05:17;;;;;;;3.53;1.10;;;31.10;94.00;;;;;;4971199;28;20912;-72
2022/07/26 10:07:43;;;;;;;1.77;0.80;;;31.10;93.50;;;;;;4970785;28;20462;-74
2022/07/26 10:10:13;;;;;;;1.93;1.00;;;31.50;94.10;;;;;;4972767;28;20183;-74
2022/07/26 10:12:44;;;;;;;1.00;0.60;;;31.90;94.90;;;;;;4965956;28;20467;-73
2022/07/26 10:15:34;;;;;;;2.03;0.77;;;32.00;92.70;;;;;;4972362;28;20407;-74
2022/07/26 10:18:00;;;;;;;2.90;0.80;;;32.00;92.80;;;;;;4971167;28;20759;-74
2022/07/26 10:20:47;;;;;;;1.87;0.80;;;32.10;93.00;;;;;;4971850;28;20478;-73
2022/07/26 10:23:37;;;;;;;2.27;0.70;;;32.00;92.30;;;;;;4971639;28;20547;-74
2022/07/26 10:26:05;;;;;;;1.43;0.60;;;32.20;93.10;;;;;;4942219;29;20494;-73
2022/07/26 10:28:32;;;;;;;1.90;0.83;;;32.10;92.70;;;;;;4969747;28;20419;-74
2022/07/26 10:31:25;;;;;;;1.07;0.83;;;32.60;92.80;;;;;;4969558;28;20466;-73
2022/07/26 10:33:52;;;;;;;5.13;0.90;;;32.40;92.10;;;;;;4965786;28;20509;-74
2022/07/26 10:36:29;;;;;;;5.53;0.80;;;32.50;91.80;;;;;;4971950;28;20427;-74
2022/07/26 10:39:05;;;;;;;3.10;0.87;;;32.90;91.80;;;;;;4972033;28;20459;-75
2022/07/26 10:41:35;;;;;;;1.10;0.80;;;32.60;90.50;;;;;;4963619;28;20555;-74
2022/07/26 10:44:11;;;;;;;1.37;0.50;;;32.70;90.40;;;;;;4952663;28;20415;-74
2022/07/26 10:46:57;;;;;;;1.73;0.60;;;32.30;90.30;;;;;;4960904;28;20435;-71
2022/07/26 10:49:52;;;;;;;5.00;0.97;;;31.60;90.90;;;;;;4972029;28;20416;-74
2022/07/26 10:52:25;;;;;;;0.73;0.60;;;32.10;91.10;;;;;;4969322;28;20462;-73
2022/07/26 10:55:05;;;;;;;1.07;0.60;;;32.40;90.50;;;;;;4971662;28;21019;-73
2022/07/26 10:57:34;;;;;;;5.03;0.90;;;32.60;89.20;;;;;;4966913;28;20439;-73
2022/07/26 11:00:00;;;;;;;1.07;0.70;;;32.60;89.10;;;;;;4971622;28;21031;-75
2022/07/26 11:02:31;;;;;;;1.10;0.67;;;32.30;88.90;;;;;;4969265;28;20869;-75
2022/07/26 11:05:14;;;;;;;1.33;0.73;;;32.40;88.40;;;;;;4971528;28;20695;-76
2022/07/26 11:07:58;;;;;;;2.47;1.03;;;32.10;88.40;;;;;;4968554;28;20526;-74
2022/07/26 11:10:33;;;;;;;2.50;0.80;;;32.00;89.50;;;;;;4969747;28;20441;-72
2022/07/26 11:13:01;;;;;;;1.53;0.93;;;31.60;87.90;;;;;;4964894;28;20856;-72
2022/07/26 11:15:27;;;;;;;2.00;0.60;;;31.30;90.00;;;;;;4969901;28;20431;-73
2022/07/26 11:18:05;;;;;;;1.60;0.87;;;31.10;90.40;;;;;;4968572;28;20435;-74
2022/07/26 11:20:31;;;;;;;3.83;0.80;;;31.10;89.30;;;;;;4969020;28;20192;-73
2022/07/26 11:22:57;;;;;;;1.60;0.80;;;30.80;89.90;;;;;;4969564;28;20818;-70
2022/07/26 11:25:22;;;;;;;3.70;0.70;;;30.80;90.40;;;;;;4970385;28;20171;-73
2022/07/26 11:28:03;;;;;;;2.20;0.83;;;30.90;90.10;;;;;;4968642;28;20212;-73
2022/07/26 11:30:29;;;;;;;1.00;0.70;;;30.90;89.20;;;;;;4965868;28;20561;-73
2022/07/26 11:32:59;;;;;;;4.93;0.70;;;30.60;88.70;;;;;;4967775;28;20447;-73
2022/07/26 11:35:25;;;;;;;3.43;0.80;;;30.10;89.50;;;;;;4967987;28;21015;-73
2022/07/26 11:37:56;;;;;;;2.53;0.70;;;30.00;90.30;;;;;;4970254;28;20415;-73
2022/07/26 11:40:44;;;;;;;1.47;0.70;;;30.10;89.60;;;;;;4968621;28;20458;-72
2022/07/26 11:43:10;;;;;;;1.10;0.80;;;30.10;90.10;;;;;;4969743;28;20498;-73
2022/07/26 11:45:36;;;;;;;1.27;0.77;;;29.80;88.30;;;;;;4969343;28;20530;-73
2022/07/26 11:48:03;;;;;;;2.97;0.83;;;29.70;89.70;;;;;;4970326;28;20176;-73
2022/07/26 11:50:28;;;;;;;2.23;0.50;;;29.80;90.00;;;;;;4969154;28;20223;-73
2022/07/26 11:52:54;;;;;;;0.70;0.60;;;29.90;88.60;;;;;;4967458;28;20459;-73
2022/07/26 11:55:27;;;;;;;0.50;0.50;;;29.80;88.90;;;;;;4969456;28;20184;-73
2022/07/26 11:57:53;;;;;;;2.57;0.83;;;29.40;89.30;;;;;;4969340;28;20177;-73
2022/07/26 12:00:19;;;;;;;3.37;0.80;;;29.50;90.40;;;;;;4970295;28;21011;-72
2022/07/26 12:02:44;;;;;;;0.70;0.70;;;29.70;89.70;;;;;;4966759;28;20584;-73
2022/07/26 12:05:15;;;;;;;2.07;1.00;;;29.70;89.00;;;;;;4970643;28;20423;-73
2022/07/26 12:08:02;;;;;;;1.83;0.80;;;29.50;88.90;;;;;;4965438;28;20663;-73
2022/07/26 12:10:28;;;;;;;0.70;0.70;;;28.90;87.50;;;;;;4968602;28;20452;-73
2022/07/26 12:13:14;;;;;;;0.70;0.60;;;29.10;88.50;;;;;;4966142;28;20522;-73
2022/07/26 12:15:44;;;;;;;0.80;0.80;;;29.10;89.00;;;;;;4967835;28;20567;-73
2022/07/26 12:18:10;;;;;;;0.70;0.70;;;29.00;88.70;;;;;;4965975;28;20511;-73
2022/07/26 12:20:35;;;;;;;0.80;0.80;;;28.60;88.80;;;;;;4969466;28;20578;-73
2022/07/26 12:23:04;;;;;;;0.80;0.60;;;28.80;89.90;;;;;;4970869;28;20270;-73
2022/07/26 12:25:30;;;;;;;0.70;0.60;;;29.10;88.40;;;;;;4955200;28;20687;-74
2022/07/26 12:27:56;;;;;;;0.50;0.47;;;29.30;88.50;;;;;;4971885;28;20435;-73
2022/07/26 12:30:22;;;;;;;1.40;0.70;;;29.30;88.10;;;;;;4972094;28;20688;-73
2022/07/26 12:32:50;;;;;;;1.00;0.70;;;29.40;87.20;;;;;;4971584;28;20285;-72
2022/07/26 12:35:30;;;;;;;0.60;0.57;;;29.30;85.80;;;;;;4971353;28;20812;-74
2022/07/26 12:37:57;;;;;;;2.53;0.60;;;29.20;85.80;;;;;;4973463;28;20433;-74
2022/07/26 12:40:38;;;;;;;1.00;0.63;;;29.50;85.70;;;;;;4971150;28;20434;-73
2022/07/26 12:43:04;;;;;;;1.27;0.63;;;29.40;85.40;;;;;;4969658;28;20936;-73
2022/07/26 12:45:32;;;;;;;0.50;0.50;;;29.20;85.00;;;;;;4969863;28;20440;-73
2022/07/26 12:47:59;;;;;;;0.90;0.60;;;29.30;85.80;;;;;;4970868;28;20434;-72
2022/07/26 12:50:27;;;;;;;0.90;0.60;;;29.40;85.70;;;;;;4971148;28;20435;-73
2022/07/26 12:53:19;;;;;;;1.67;0.70;;;29.50;87.00;;;;;;4973591;28;20447;-73
2022/07/26 12:55:45;;;;;;;0.70;0.60;;;29.70;87.30;;;;;;4968592;28;20505;-74
2022/07/26 12:58:10;;;;;;;0.80;0.60;;;29.40;85.50;;;;;;4968121;28;20443;-73
2022/07/26 13:00:36;;;;;;;1.43;0.70;;;29.10;86.80;;;;;;4971423;28;20545;-71
2022/07/26 13:03:01;;;;;;;0.80;0.60;;;29.10;87.30;;;;;;4956905;28;20224;-73
2022/07/26 13:05:27;;;;;;;0.87;0.60;;;29.20;84.60;;;;;;4971912;28;20206;-73
2022/07/26 13:07:53;;;;;;;2.00;0.50;;;29.20;83.00;;;;;;4971684;28;20184;-73
2022/07/26 13:10:19;;;;;;;2.83;0.70;;;29.30;85.40;;;;;;4906072;28;20576;-74
2022/07/26 13:12:44;;;;;;;1.87;0.63;;;29.00;86.50;;;;;;4939095;28;20735;-71
2022/07/26 13:15:10;;;;;;;1.03;0.50;;;28.80;87.30;;;;;;4972498;28;20646;-71
2022/07/26 13:17:35;;;;;;;0.97;0.97;;;28.50;86.90;;;;;;4968692;28;20247;-71
2022/07/26 13:20:01;;;;;;;1.67;0.60;;;28.30;87.30;;;;;;4971223;28;20275;-71
2022/07/26 13:22:26;;;;;;;1.90;0.70;;;28.10;87.00;;;;;;4952061;28;20582;-71
2022/07/26 13:24:52;;;;;;;3.23;0.60;;;28.30;87.60;;;;;;4972202;28;20227;-72
2022/07/26 13:27:17;;;;;;;1.87;0.83;;;28.40;86.70;;;;;;4968958;28;20215;-72
2022/07/26 13:29:43;;;;;;;3.97;0.70;;;28.30;86.20;;;;;;4971206;28;20243;-71
2022/07/26 13:32:08;;;;;;;3.60;0.70;;;28.20;85.60;;;;;;4968088;28;20766;-71
2022/07/26 13:34:34;;;;;;;0.80;0.70;;;28.20;87.20;;;;;;4966781;28;20216;-71
2022/07/26 13:36:59;;;;;;;3.20;0.70;;;28.40;86.10;;;;;;4969626;28;20215;-71
2022/07/26 13:39:26;;;;;;;1.57;0.70;;;28.40;87.90;;;;;;4970031;28;20219;-71
2022/07/26 13:41:52;;;;;;;0.60;0.53;;;28.60;86.20;;;;;;4968536;28;20207;-71
2022/07/26 13:44:17;;;;;;;1.23;0.60;;;28.60;85.30;;;;;;4970173;28;20471;-71
2022/07/26 13:46:43;;;;;;;1.60;0.70;;;28.10;84.50;;;;;;4971750;28;20824;-71
2022/07/26 13:49:09;;;;;;;2.20;2.10;;;27.90;88.00;;;;;;4926856;28;20484;-72
2022/07/26 13:54:22;;;;;;;4.00;0.60;;;27.60;84.00;;;;;;4854088;28;20641;-73
2022/07/26 13:56:49;;;;;;;0.90;0.60;;;27.70;86.80;;;;;;4853310;28;20889;-71
2022/07/26 13:59:15;;;;;;;1.80;0.70;;;27.50;87.00;;;;;;4900106;28;20763;-73
2022/07/26 14:01:41;;;;;;;1.40;0.57;;;27.40;88.80;;;;;;4915877;28;20565;-74
2022/07/26 14:04:08;;;;;;;0.87;0.60;;;27.20;88.20;;;;;;4969937;28;20531;-73
2022/07/26 14:06:34;;;;;;;1.17;0.80;;;27.10;88.30;;;;;;4972465;28;20411;-74
2022/07/26 14:09:01;;;;;;;1.57;0.50;;;27.30;89.20;;;;;;4972702;28;20442;-73
2022/07/26 14:11:26;;;;;;;0.83;0.60;;;27.50;85.90;;;;;;4964588;28;20516;-73
2022/07/26 14:13:53;;;;;;;3.80;0.90;;;27.40;86.20;;;;;;4953786;28;20510;-71
2022/07/26 14:16:19;;;;;;;0.60;0.60;;;27.20;83.10;;;;;;4938732;28;20214;-74
2022/07/26 14:18:44;;;;;;;0.80;0.70;;;27.00;84.50;;;;;;4971653;28;20971;-73
2022/07/26 14:21:10;;;;;;;3.27;1.33;;;26.90;84.40;;;;;;4969128;28;20668;-74
2022/07/26 14:23:35;;;;;;;0.60;0.60;;;26.80;87.20;;;;;;4971090;28;20180;-74
2022/07/26 14:26:01;;;;;;;0.83;0.70;;;26.90;88.40;;;;;;4969641;28;20211;-74